createdAt,value
2022-10-23T00:00:28.716Z,0
2022-10-23T00:01:00.605Z,0
2022-10-23T00:01:32.628Z,1.44
2022-10-23T00:02:04.643Z,1.77
2022-10-23T00:02:35.466Z,1.77
2022-10-23T00:02:52.612Z,1.77
2022-10-23T00:03:24.792Z,.64
2022-10-23T00:03:45.605Z,1.12
2022-10-23T00:04:18.235Z,1.77
2022-10-23T00:04:35.356Z,1.77
2022-10-23T00:05:00.641Z,1.77
2022-10-23T00:05:32.488Z,1.77
2022-10-23T00:06:04.886Z,1.77
2022-10-23T00:06:36.022Z,1.44
2022-10-23T00:06:52.446Z,1.44
2022-10-23T00:07:24.643Z,1.44
2022-10-23T00:07:41.653Z,1.44
2022-10-23T00:08:12.588Z,1.77
2022-10-23T00:08:35.448Z,1.77
2022-10-23T00:09:00.583Z,1.77
2022-10-23T00:09:32.549Z,1.77
2022-10-23T00:10:04.500Z,1.77
2022-10-23T00:10:35.329Z,2.09
2022-10-23T00:10:57.650Z,1.44
2022-10-23T00:11:24.641Z,2.09
2022-10-23T00:11:46.484Z,2.09
2022-10-23T00:12:12.628Z,2.09
2022-10-23T00:12:35.961Z,1.77
2022-10-23T00:13:00.597Z,2.09
2022-10-23T00:13:32.545Z,2.89
2022-10-23T00:14:04.532Z,2.89
2022-10-23T00:14:35.645Z,1.77
2022-10-23T00:14:52.501Z,1.77
2022-10-23T00:15:24.554Z,1.77
2022-10-23T00:15:41.915Z,1.77
2022-10-23T00:16:12.538Z,2.89
2022-10-23T00:16:35.351Z,3.21
2022-10-23T00:17:00.561Z,0
2022-10-23T00:17:32.470Z,2.89
2022-10-23T00:18:04.605Z,2.89
2022-10-23T00:18:35.390Z,1.77
2022-10-23T00:18:52.542Z,1.77
2022-10-23T00:19:25.588Z,1.77
2022-10-23T00:19:42.497Z,2.09
2022-10-23T00:20:12.656Z,3.21
2022-10-23T00:20:35.529Z,2.89
2022-10-23T00:21:00.606Z,1.77
2022-10-23T00:21:32.498Z,2.09
2022-10-23T00:22:09.645Z,2.57
2022-10-23T00:22:35.281Z,2.09
2022-10-23T00:22:52.538Z,1.77
2022-10-23T00:23:24.597Z,2.09
2022-10-23T00:23:41.645Z,1.77
2022-10-23T00:24:12.702Z,2.89
2022-10-23T00:24:35.449Z,2.57
2022-10-23T00:25:00.595Z,1.77
2022-10-23T00:25:32.592Z,1.77
2022-10-23T00:26:04.501Z,2.09
2022-10-23T00:26:35.240Z,1.77
2022-10-23T00:26:52.717Z,2.09
2022-10-23T00:27:24.629Z,3.21
2022-10-23T00:27:41.809Z,2.89
2022-10-23T00:28:12.591Z,3.54
2022-10-23T00:28:35.238Z,3.54
2022-10-23T00:29:00.583Z,3.54
2022-10-23T00:29:33.118Z,3.54
2022-10-23T00:30:04.579Z,1.77
2022-10-23T00:30:35.178Z,1.77
2022-10-23T00:30:52.623Z,2.09
2022-10-23T00:31:24.638Z,2.09
2022-10-23T00:31:41.592Z,2.89
2022-10-23T00:32:12.578Z,2.09
2022-10-23T00:32:35.238Z,2.57
2022-10-23T00:33:00.621Z,2.09
2022-10-23T00:33:32.555Z,2.57
2022-10-23T00:34:04.742Z,1.77
2022-10-23T00:34:35.810Z,1.77
2022-10-23T00:35:08.589Z,1.77
2022-10-23T00:35:35.314Z,1.77
2022-10-23T00:35:56.618Z,1.77
2022-10-23T00:36:28.468Z,2.57
2022-10-23T00:37:00.648Z,2.57
2022-10-23T00:37:32.585Z,2.09
2022-10-23T00:38:04.463Z,1.77
2022-10-23T00:38:35.219Z,2.09
2022-10-23T00:38:57.552Z,2.09
2022-10-23T00:39:24.567Z,2.89
2022-10-23T00:39:42.421Z,2.89
2022-10-23T00:40:12.707Z,2.09
2022-10-23T00:40:35.371Z,2.09
2022-10-23T00:41:00.581Z,3.21
2022-10-23T00:41:32.509Z,3.54
2022-10-23T00:42:04.619Z,2.09
2022-10-23T00:42:35.405Z,2.09
2022-10-23T00:42:52.641Z,1.77
2022-10-23T00:43:24.543Z,1.77
2022-10-23T00:43:41.815Z,1.77
2022-10-23T00:44:12.519Z,1.77
2022-10-23T00:44:35.134Z,2.57
2022-10-23T00:45:00.538Z,2.89
2022-10-23T00:45:32.534Z,3.54
2022-10-23T00:46:04.541Z,3.21
2022-10-23T00:46:36.415Z,2.09
2022-10-23T00:47:07.933Z,3.54
2022-10-23T00:47:24.520Z,3.54
2022-10-23T00:47:41.594Z,3.54
2022-10-23T00:48:12.571Z,3.54
2022-10-23T00:48:35.514Z,3.54
2022-10-23T00:49:00.487Z,3.21
2022-10-23T00:49:34.402Z,2.09
2022-10-23T00:50:11.182Z,3.21
2022-10-23T00:50:35.253Z,2.89
2022-10-23T00:50:52.574Z,3.54
2022-10-23T00:51:24.535Z,1.77
2022-10-23T00:51:41.750Z,2.09
2022-10-23T00:52:12.587Z,2.57
2022-10-23T00:52:35.242Z,2.09
2022-10-23T00:53:00.542Z,1.77
2022-10-23T00:53:32.534Z,1.77
2022-10-23T00:54:35.194Z,1.77
2022-10-23T00:54:52.560Z,2.09
2022-10-23T00:55:24.501Z,2.89
2022-10-23T00:55:41.841Z,3.54
2022-10-23T00:56:12.589Z,2.09
2022-10-23T00:56:35.294Z,2.09
2022-10-23T00:57:00.668Z,.32
2022-10-23T00:57:32.607Z,0
2022-10-23T00:58:04.469Z,2.89
2022-10-23T00:58:36.064Z,2.09
2022-10-23T00:59:08.492Z,4.02
2022-10-23T00:59:35.344Z,3.54
2022-10-23T00:59:56.706Z,3.54
2022-10-23T01:00:28.651Z,3.54
2022-10-23T01:01:00.683Z,3.21
2022-10-23T01:01:32.607Z,3.21
2022-10-23T01:02:05.225Z,3.21
2022-10-23T01:02:35.402Z,3.21
2022-10-23T01:02:52.512Z,2.09
2022-10-23T01:03:24.520Z,1.77
2022-10-23T01:03:41.775Z,2.09
2022-10-23T01:04:12.587Z,1.77
2022-10-23T01:04:36.686Z,1.77
2022-10-23T01:05:00.507Z,1.77
2022-10-23T01:05:32.521Z,2.09
2022-10-23T01:06:04.449Z,2.09
2022-10-23T01:06:35.222Z,2.89
2022-10-23T01:06:57.627Z,2.89
2022-10-23T01:07:24.623Z,3.21
2022-10-23T01:07:41.886Z,2.89
2022-10-23T01:08:12.558Z,1.77
2022-10-23T01:08:35.689Z,2.09
2022-10-23T01:09:00.581Z,2.09
2022-10-23T01:09:32.568Z,1.12
2022-10-23T01:10:04.663Z,2.09
2022-10-23T01:10:35.922Z,2.09
2022-10-23T01:11:07.912Z,2.89
2022-10-23T01:11:24.376Z,2.09
2022-10-23T01:11:41.416Z,1.77
2022-10-23T01:12:13.207Z,1.77
2022-10-23T01:12:35.537Z,1.77
2022-10-23T01:13:00.739Z,1.77
2022-10-23T01:13:32.560Z,1.77
2022-10-23T01:14:04.631Z,1.77
2022-10-23T01:14:35.626Z,1.77
2022-10-23T01:14:52.532Z,1.77
2022-10-23T01:15:24.638Z,0
2022-10-23T01:15:41.756Z,1.44
2022-10-23T01:16:12.668Z,1.77
2022-10-23T01:16:35.244Z,1.44
2022-10-23T01:17:00.581Z,1.12
2022-10-23T01:17:32.558Z,1.77
2022-10-23T01:18:09.547Z,1.77
2022-10-23T01:18:36.165Z,2.09
2022-10-23T01:19:08.081Z,1.77
2022-10-23T01:19:24.457Z,2.09
2022-10-23T01:19:41.774Z,1.77
2022-10-23T01:20:12.489Z,.64
2022-10-23T01:20:35.780Z,0
2022-10-23T01:21:00.457Z,0
2022-10-23T01:21:32.624Z,0
2022-10-23T01:22:04.515Z,.32
2022-10-23T01:22:35.259Z,2.09
2022-10-23T01:22:52.794Z,2.09
2022-10-23T01:23:24.655Z,2.89
2022-10-23T01:23:41.667Z,2.89
2022-10-23T01:24:12.516Z,2.09
2022-10-23T01:24:36.254Z,1.77
2022-10-23T01:25:00.634Z,1.77
2022-10-23T01:25:32.482Z,2.09
2022-10-23T01:26:04.497Z,1.77
2022-10-23T01:26:35.258Z,1.12
2022-10-23T01:26:52.534Z,1.77
2022-10-23T01:27:25.169Z,1.77
2022-10-23T01:27:42.149Z,2.09
2022-10-23T01:28:12.542Z,1.77
2022-10-23T01:28:35.232Z,1.77
2022-10-23T01:29:00.607Z,0
2022-10-23T01:29:32.529Z,0
2022-10-23T01:30:04.689Z,1.44
2022-10-23T01:30:35.283Z,1.77
2022-10-23T01:30:52.654Z,1.12
2022-10-23T01:31:24.625Z,0
2022-10-23T01:31:41.640Z,0
2022-10-23T01:32:12.453Z,0
2022-10-23T01:32:35.873Z,0
2022-10-23T01:33:00.564Z,0
2022-10-23T01:33:32.639Z,0
2022-10-23T01:34:05.905Z,0
2022-10-23T01:34:35.242Z,0
2022-10-23T01:34:57.684Z,1.77
2022-10-23T01:35:24.544Z,1.44
2022-10-23T01:35:41.659Z,1.44
2022-10-23T01:36:12.555Z,1.12
2022-10-23T01:36:35.372Z,1.12
2022-10-23T01:37:00.797Z,1.44
2022-10-23T01:37:33.121Z,1.77
2022-10-23T01:38:04.417Z,.64
2022-10-23T01:38:35.303Z,1.44
2022-10-23T01:38:52.611Z,1.77
2022-10-23T01:39:24.577Z,0
2022-10-23T01:39:41.664Z,0
2022-10-23T01:40:12.469Z,0
2022-10-23T01:40:35.302Z,0
2022-10-23T01:41:00.666Z,0
2022-10-23T01:41:32.650Z,0
2022-10-23T01:42:04.462Z,0
2022-10-23T01:42:35.879Z,0
2022-10-23T01:42:52.665Z,0
2022-10-23T01:43:24.579Z,1.44
2022-10-23T01:43:41.787Z,2.57
2022-10-23T01:44:12.496Z,1.77
2022-10-23T01:44:35.803Z,1.77
2022-10-23T01:45:00.666Z,2.57
2022-10-23T01:45:32.467Z,1.77
2022-10-23T01:46:09.496Z,.64
2022-10-23T01:46:35.738Z,1.44
2022-10-23T01:46:52.456Z,1.12
2022-10-23T01:47:24.685Z,1.77
2022-10-23T01:47:43.054Z,1.44
2022-10-23T01:48:12.511Z,1.44
2022-10-23T01:48:35.224Z,1.12
2022-10-23T01:49:00.419Z,1.12
2022-10-23T01:49:32.498Z,1.44
2022-10-23T01:50:04.600Z,2.09
2022-10-23T01:50:35.313Z,2.57
2022-10-23T01:50:52.507Z,2.09
2022-10-23T01:51:24.527Z,1.77
2022-10-23T01:51:41.608Z,1.77
2022-10-23T01:52:12.526Z,1.77
2022-10-23T01:52:35.248Z,1.77
2022-10-23T01:53:00.738Z,2.09
2022-10-23T01:53:32.510Z,1.77
2022-10-23T01:54:04.502Z,1.77
2022-10-23T01:54:35.182Z,1.12
2022-10-23T01:54:52.634Z,0
2022-10-23T01:55:24.441Z,0
2022-10-23T01:56:12.772Z,1.12
2022-10-23T01:56:35.249Z,1.12
2022-10-23T01:57:00.517Z,1.77
2022-10-23T01:57:32.681Z,1.77
2022-10-23T01:58:04.667Z,1.77
2022-10-23T01:58:35.144Z,1.77
2022-10-23T01:58:52.567Z,1.77
2022-10-23T01:59:24.551Z,1.44
2022-10-23T01:59:52.413Z,2.09
2022-10-23T02:00:12.541Z,1.77
2022-10-23T02:00:35.366Z,2.09
2022-10-23T02:01:00.783Z,1.77
2022-10-23T02:01:32.611Z,1.77
2022-10-23T02:02:05.571Z,1.77
2022-10-23T02:02:35.486Z,1.77
2022-10-23T02:03:08.506Z,2.09
2022-10-23T02:03:35.413Z,3.54
2022-10-23T02:03:56.652Z,2.09
2022-10-23T02:04:28.472Z,1.77
2022-10-23T02:05:00.694Z,1.44
2022-10-23T02:05:32.746Z,2.09
2022-10-23T02:06:04.733Z,3.21
2022-10-23T02:06:35.262Z,2.09
2022-10-23T02:06:52.470Z,2.57
2022-10-23T02:07:24.556Z,2.89
2022-10-23T02:07:41.916Z,2.57
2022-10-23T02:08:12.402Z,2.09
2022-10-23T02:08:35.314Z,.32
2022-10-23T02:09:00.597Z,3.54
2022-10-23T02:09:32.479Z,3.54
2022-10-23T02:10:04.519Z,2.57
2022-10-23T02:10:35.571Z,2.09
2022-10-23T02:10:52.528Z,1.77
2022-10-23T02:11:24.587Z,2.09
2022-10-23T02:11:41.628Z,2.89
2022-10-23T02:12:13.094Z,2.57
2022-10-23T02:12:35.369Z,2.09
2022-10-23T02:13:00.533Z,1.77
2022-10-23T02:13:32.507Z,1.77
2022-10-23T02:14:09.519Z,1.77
2022-10-23T02:14:35.215Z,1.77
2022-10-23T02:14:52.474Z,1.77
2022-10-23T02:15:24.647Z,1.77
2022-10-23T02:15:41.551Z,1.77
2022-10-23T02:16:12.463Z,2.09
2022-10-23T02:16:35.146Z,2.09
2022-10-23T02:17:00.588Z,1.77
2022-10-23T02:17:32.473Z,1.77
2022-10-23T02:18:04.442Z,3.21
2022-10-23T02:18:34.978Z,2.89
2022-10-23T02:18:52.472Z,1.77
2022-10-23T02:19:24.568Z,2.89
2022-10-23T02:19:41.541Z,2.89
2022-10-23T02:20:14.222Z,3.54
2022-10-23T02:20:35.322Z,3.54
2022-10-23T02:21:00.672Z,3.54
2022-10-23T02:21:32.740Z,3.21
2022-10-23T02:22:04.415Z,2.57
2022-10-23T02:22:35.217Z,1.12
2022-10-23T02:22:52.558Z,1.44
2022-10-23T02:23:24.399Z,2.89
2022-10-23T02:23:41.347Z,3.21
2022-10-23T02:24:12.500Z,2.57
2022-10-23T02:24:40.121Z,2.57
2022-10-23T02:25:00.419Z,2.09
2022-10-23T02:25:32.365Z,2.09
2022-10-23T02:26:04.422Z,2.09
2022-10-23T02:26:35.445Z,3.54
2022-10-23T02:26:52.467Z,3.21
2022-10-23T02:27:25.090Z,3.54
2022-10-23T02:27:42.307Z,2.89
2022-10-23T02:28:12.806Z,1.77
2022-10-23T02:28:35.219Z,1.77
2022-10-23T02:29:00.731Z,1.44
2022-10-23T02:29:32.536Z,2.89
2022-10-23T02:30:04.523Z,2.89
2022-10-23T02:30:35.539Z,1.77
2022-10-23T02:30:57.623Z,.32
2022-10-23T02:31:24.557Z,0
2022-10-23T02:31:41.582Z,0
2022-10-23T02:32:12.313Z,.32
2022-10-23T02:32:41.095Z,1.12
2022-10-23T02:33:06.871Z,1.44
2022-10-23T02:33:32.596Z,2.57
2022-10-23T02:34:04.377Z,1.77
2022-10-23T02:34:35.013Z,1.77
2022-10-23T02:35:08.517Z,2.09
2022-10-23T02:35:34.921Z,2.89
2022-10-23T02:35:56.939Z,3.54
2022-10-23T02:36:33.521Z,2.89
2022-10-23T02:37:00.939Z,1.77
2022-10-23T02:37:33.321Z,1.77
2022-10-23T02:38:04.649Z,1.77
2022-10-23T02:38:37.973Z,1.77
2022-10-23T02:38:52.834Z,2.57
2022-10-23T02:39:24.855Z,2.57
2022-10-23T02:39:42.245Z,1.77
2022-10-23T02:40:12.607Z,1.77
2022-10-23T02:40:37.699Z,1.77
2022-10-23T02:41:00.751Z,1.77
2022-10-23T02:41:32.741Z,2.09
2022-10-23T02:42:13.369Z,1.77
2022-10-23T02:42:39.969Z,1.77
2022-10-23T02:42:52.510Z,1.77
2022-10-23T02:43:24.557Z,1.77
2022-10-23T02:43:41.709Z,1.77
2022-10-23T02:44:12.381Z,1.77
2022-10-23T02:44:35.112Z,1.77
2022-10-23T02:45:00.641Z,1.77
2022-10-23T02:45:32.717Z,1.77
2022-10-23T02:46:04.657Z,2.09
2022-10-23T02:46:35.286Z,2.57
2022-10-23T02:46:52.539Z,2.57
2022-10-23T02:47:24.550Z,1.44
2022-10-23T02:47:42.966Z,1.44
2022-10-23T02:48:12.558Z,1.77
2022-10-23T02:48:35.340Z,1.77
2022-10-23T02:49:00.538Z,1.44
2022-10-23T02:49:32.428Z,1.44
2022-10-23T02:50:04.602Z,1.77
2022-10-23T02:50:36.047Z,1.77
2022-10-23T02:50:52.516Z,1.77
2022-10-23T02:51:24.613Z,1.44
2022-10-23T02:51:41.757Z,.64
2022-10-23T02:52:12.541Z,0
2022-10-23T02:52:37.084Z,0
2022-10-23T02:53:00.492Z,0
2022-10-23T02:53:32.569Z,0
2022-10-23T02:54:04.568Z,1.12
2022-10-23T02:54:35.923Z,.32
2022-10-23T02:55:07.926Z,0
2022-10-23T02:55:24.400Z,0
2022-10-23T02:55:41.472Z,0
2022-10-23T02:56:12.392Z,0
2022-10-23T02:56:37.888Z,0
2022-10-23T02:57:00.475Z,.32
2022-10-23T02:57:32.494Z,1.44
2022-10-23T02:58:05.132Z,1.77
2022-10-23T02:58:35.195Z,1.77
2022-10-23T02:58:52.449Z,1.77
2022-10-23T02:59:24.245Z,1.44
2022-10-23T02:59:41.485Z,1.77
2022-10-23T03:00:12.430Z,1.77
2022-10-23T03:00:35.211Z,1.77
2022-10-23T03:01:00.556Z,1.77
2022-10-23T03:01:32.574Z,1.77
2022-10-23T03:02:04.644Z,1.44
2022-10-23T03:02:35.150Z,1.12
2022-10-23T03:02:52.561Z,0
2022-10-23T03:03:24.474Z,0
2022-10-23T03:03:41.538Z,0
2022-10-23T03:04:12.577Z,0
2022-10-23T03:04:35.959Z,0
2022-10-23T03:05:00.753Z,0
2022-10-23T03:05:32.611Z,0
2022-10-23T03:06:04.406Z,0
2022-10-23T03:06:40.452Z,0
2022-10-23T03:06:52.526Z,.32
2022-10-23T03:07:24.447Z,1.77
2022-10-23T03:07:41.869Z,1.77
2022-10-23T03:08:13.096Z,2.57
2022-10-23T03:08:35.325Z,2.09
2022-10-23T03:09:01.067Z,1.77
2022-10-23T03:09:32.499Z,1.44
2022-10-23T03:10:04.387Z,1.77
2022-10-23T03:10:35.241Z,1.77
2022-10-23T03:10:52.654Z,1.77
2022-10-23T03:11:24.633Z,1.77
2022-10-23T03:11:42.108Z,1.77
2022-10-23T03:12:12.598Z,1.44
2022-10-23T03:12:35.180Z,1.77
2022-10-23T03:13:00.861Z,2.09
2022-10-23T03:13:32.650Z,1.77
2022-10-23T03:14:04.587Z,1.77
2022-10-23T03:14:35.264Z,1.77
2022-10-23T03:14:52.655Z,1.44
2022-10-23T03:15:24.675Z,.32
2022-10-23T03:15:42.070Z,0
2022-10-23T03:16:12.390Z,0
2022-10-23T03:16:35.164Z,0
2022-10-23T03:17:00.691Z,0
2022-10-23T03:17:32.662Z,0
2022-10-23T03:18:04.495Z,0
2022-10-23T03:18:35.332Z,0
2022-10-23T03:18:52.566Z,0
2022-10-23T03:19:24.514Z,0
2022-10-23T03:19:41.603Z,0
2022-10-23T03:20:12.523Z,0
2022-10-23T03:20:40.383Z,0
2022-10-23T03:21:00.463Z,0
2022-10-23T03:21:32.544Z,0
2022-10-23T03:22:04.489Z,0
2022-10-23T03:22:35.524Z,0
2022-10-23T03:23:08.636Z,0
2022-10-23T03:23:35.123Z,0
2022-10-23T03:23:56.725Z,0
2022-10-23T03:24:28.555Z,0
2022-10-23T03:25:00.495Z,0
2022-10-23T03:25:32.499Z,0
2022-10-23T03:26:04.454Z,0
2022-10-23T03:26:35.743Z,0
2022-10-23T03:26:52.594Z,0
2022-10-23T03:27:24.546Z,.64
2022-10-23T03:27:41.664Z,1.77
2022-10-23T03:28:12.538Z,1.77
2022-10-23T03:28:35.127Z,1.77
2022-10-23T03:29:00.494Z,2.09
2022-10-23T03:29:32.508Z,1.77
2022-10-23T03:30:04.601Z,1.44
2022-10-23T03:30:35.419Z,2.57
2022-10-23T03:30:52.531Z,3.54
2022-10-23T03:31:24.431Z,2.89
2022-10-23T03:31:41.685Z,2.89
2022-10-23T03:32:12.450Z,2.09
2022-10-23T03:32:36.599Z,2.57
2022-10-23T03:33:00.287Z,1.77
2022-10-23T03:33:33.098Z,1.77
2022-10-23T03:34:07.512Z,2.57
2022-10-23T03:34:40.375Z,2.89
2022-10-23T03:34:52.547Z,2.09
2022-10-23T03:35:24.414Z,1.77
2022-10-23T03:35:41.546Z,1.77
2022-10-23T03:36:12.477Z,1.44
2022-10-23T03:36:35.456Z,1.77
2022-10-23T03:37:00.558Z,1.12
2022-10-23T03:37:32.431Z,0
2022-10-23T03:38:04.488Z,0
2022-10-23T03:38:36.617Z,0
2022-10-23T03:39:13.535Z,0
2022-10-23T03:39:35.139Z,0
2022-10-23T03:39:56.812Z,0
2022-10-23T03:40:28.464Z,0
2022-10-23T03:41:00.406Z,0
2022-10-23T03:41:32.489Z,0
2022-10-23T03:42:04.472Z,0
2022-10-23T03:42:35.316Z,0
2022-10-23T03:42:52.473Z,0
2022-10-23T03:43:24.462Z,0
2022-10-23T03:43:42.267Z,0
2022-10-23T03:44:12.241Z,0
2022-10-23T03:44:35.221Z,0
2022-10-23T03:45:00.630Z,0
2022-10-23T03:45:32.405Z,0
2022-10-23T03:46:04.386Z,0
2022-10-23T03:46:35.190Z,0
2022-10-23T03:46:52.520Z,0
2022-10-23T03:47:24.408Z,0
2022-10-23T03:47:41.683Z,0
2022-10-23T03:48:12.364Z,0
2022-10-23T03:48:40.420Z,.32
2022-10-23T03:49:00.513Z,1.44
2022-10-23T03:49:47.457Z,2.09
2022-10-23T03:50:04.489Z,2.89
2022-10-23T03:50:35.146Z,1.77
2022-10-23T03:50:52.469Z,1.77
2022-10-23T03:51:24.545Z,2.09
2022-10-23T03:51:41.572Z,2.57
2022-10-23T03:52:12.446Z,.64
2022-10-23T03:52:35.935Z,1.44
2022-10-23T03:53:00.509Z,2.09
2022-10-23T03:53:32.528Z,2.09
2022-10-23T03:54:05.182Z,2.09
2022-10-23T03:54:35.886Z,2.89
2022-10-23T03:54:52.449Z,2.89
2022-10-23T03:55:24.554Z,3.54
2022-10-23T03:55:41.605Z,3.54
2022-10-23T03:56:12.441Z,3.54
2022-10-23T03:56:35.144Z,3.21
2022-10-23T03:57:00.449Z,4.02
2022-10-23T03:57:32.513Z,4.02
2022-10-23T03:58:04.401Z,4.34
2022-10-23T03:58:35.244Z,4.34
2022-10-23T03:58:52.693Z,3.54
2022-10-23T03:59:24.540Z,3.54
2022-10-23T03:59:41.924Z,3.21
2022-10-23T04:00:12.544Z,2.89
2022-10-23T04:00:35.152Z,1.77
2022-10-23T04:01:00.537Z,2.57
2022-10-23T04:01:32.690Z,1.77
2022-10-23T04:02:05.291Z,.32
2022-10-23T04:02:40.400Z,0
2022-10-23T04:02:52.458Z,0
2022-10-23T04:03:24.297Z,0
2022-10-23T04:03:41.717Z,0
2022-10-23T04:04:12.505Z,0
2022-10-23T04:04:35.281Z,0
2022-10-23T04:05:00.539Z,1.44
2022-10-23T04:05:32.465Z,1.12
2022-10-23T04:06:04.576Z,1.12
2022-10-23T04:06:35.153Z,.64
2022-10-23T04:06:52.398Z,.32
2022-10-23T04:07:24.606Z,.32
2022-10-23T04:07:41.713Z,0
2022-10-23T04:08:16.318Z,0
2022-10-23T04:08:36.087Z,0
2022-10-23T04:09:00.506Z,0
2022-10-23T04:09:32.536Z,0
2022-10-23T04:10:04.465Z,0
2022-10-23T04:10:35.345Z,0
2022-10-23T04:10:52.536Z,0
2022-10-23T04:11:24.416Z,0
2022-10-23T04:11:46.686Z,0
2022-10-23T04:12:13.240Z,0
2022-10-23T04:12:35.418Z,0
2022-10-23T04:13:00.665Z,0
2022-10-23T04:13:32.449Z,0
2022-10-23T04:14:04.210Z,.32
2022-10-23T04:14:35.326Z,.64
2022-10-23T04:14:52.575Z,.32
2022-10-23T04:15:24.537Z,0
2022-10-23T04:15:41.645Z,0
2022-10-23T04:16:12.458Z,.32
2022-10-23T04:16:40.215Z,0
2022-10-23T04:17:00.404Z,.32
2022-10-23T04:17:33.174Z,1.44
2022-10-23T04:18:04.452Z,0
2022-10-23T04:18:35.129Z,0
2022-10-23T04:18:52.536Z,0
2022-10-23T04:19:24.541Z,0
2022-10-23T04:19:41.503Z,0
2022-10-23T04:20:12.551Z,0
2022-10-23T04:20:35.124Z,0
2022-10-23T04:21:00.435Z,0
2022-10-23T04:21:32.427Z,.32
2022-10-23T04:22:04.242Z,1.12
2022-10-23T04:22:36.068Z,1.77
2022-10-23T04:22:52.389Z,1.77
2022-10-23T04:23:24.465Z,1.12
2022-10-23T04:23:41.618Z,1.12
2022-10-23T04:24:12.277Z,.32
2022-10-23T04:24:35.223Z,.32
2022-10-23T04:25:00.485Z,0
2022-10-23T04:25:32.481Z,.32
2022-10-23T04:26:04.280Z,1.12
2022-10-23T04:26:35.207Z,.64
2022-10-23T04:26:52.470Z,.32
2022-10-23T04:27:24.269Z,0
2022-10-23T04:27:42.625Z,0
2022-10-23T04:28:12.273Z,0
2022-10-23T04:28:35.442Z,0
2022-10-23T04:29:00.361Z,0
2022-10-23T04:29:37.429Z,0
2022-10-23T04:30:04.485Z,0
2022-10-23T04:30:40.275Z,0
2022-10-23T04:30:52.647Z,0
2022-10-23T04:31:24.449Z,0
2022-10-23T04:31:41.502Z,0
2022-10-23T04:32:12.541Z,0
2022-10-23T04:32:35.257Z,0
2022-10-23T04:33:00.398Z,0
2022-10-23T04:33:32.435Z,0
2022-10-23T04:34:35.780Z,0
2022-10-23T04:35:07.944Z,0
2022-10-23T04:35:24.251Z,0
2022-10-23T04:35:41.763Z,0
2022-10-23T04:36:12.512Z,0
2022-10-23T04:36:35.365Z,0
2022-10-23T04:37:00.569Z,0
2022-10-23T04:37:32.401Z,0
2022-10-23T04:38:04.934Z,0
2022-10-23T04:38:35.333Z,0
2022-10-23T04:38:52.472Z,0
2022-10-23T04:39:24.372Z,0
2022-10-23T04:39:46.699Z,0
2022-10-23T04:40:12.404Z,0
2022-10-23T04:40:35.215Z,0
2022-10-23T04:41:00.473Z,0
2022-10-23T04:41:32.515Z,0
2022-10-23T04:42:04.331Z,0
2022-10-23T04:42:35.250Z,0
2022-10-23T04:43:09.219Z,0
2022-10-23T04:43:35.905Z,0
2022-10-23T04:43:56.609Z,0
2022-10-23T04:44:28.668Z,0
2022-10-23T04:45:00.465Z,0
2022-10-23T04:45:32.522Z,0
2022-10-23T04:46:06.375Z,0
2022-10-23T04:46:38.749Z,0
2022-10-23T04:47:08.472Z,0
2022-10-23T04:47:36.159Z,0
2022-10-23T04:47:56.768Z,0
2022-10-23T04:48:33.403Z,0
2022-10-23T04:49:00.429Z,0
2022-10-23T04:49:32.659Z,0
2022-10-23T04:50:04.236Z,0
2022-10-23T04:50:35.276Z,0
2022-10-23T04:50:52.515Z,0
2022-10-23T04:51:24.475Z,0
2022-10-23T04:51:41.611Z,0
2022-10-23T04:52:12.540Z,0
2022-10-23T04:52:35.304Z,0
2022-10-23T04:53:00.665Z,0
2022-10-23T04:53:32.389Z,0
2022-10-23T04:54:04.361Z,0
2022-10-23T04:54:35.267Z,0
2022-10-23T04:54:52.689Z,0
2022-10-23T04:55:24.378Z,0
2022-10-23T04:55:41.559Z,0
2022-10-23T04:56:12.224Z,0
2022-10-23T04:56:36.529Z,0
2022-10-23T04:57:00.528Z,0
2022-10-23T04:57:37.660Z,0
2022-10-23T04:58:04.543Z,0
2022-10-23T04:58:40.633Z,0
2022-10-23T04:58:52.593Z,0
2022-10-23T04:59:24.476Z,0
2022-10-23T04:59:41.583Z,0
2022-10-23T05:00:12.387Z,0
2022-10-23T05:00:35.993Z,0
2022-10-23T05:01:00.641Z,0
2022-10-23T05:01:32.410Z,0
2022-10-23T05:02:05.009Z,0
2022-10-23T05:02:35.904Z,0
2022-10-23T05:02:52.447Z,0
2022-10-23T05:03:24.432Z,0
2022-10-23T05:03:41.564Z,0
2022-10-23T05:04:12.272Z,0
2022-10-23T05:04:35.282Z,0
2022-10-23T05:05:00.482Z,0
2022-10-23T05:05:32.329Z,0
2022-10-23T05:06:13.203Z,0
2022-10-23T05:06:35.266Z,0
2022-10-23T05:06:52.862Z,0
2022-10-23T05:07:24.423Z,.32
2022-10-23T05:07:42.677Z,3.21
2022-10-23T05:08:15.588Z,1.77
2022-10-23T05:08:35.142Z,1.77
2022-10-23T05:09:00.477Z,.32
2022-10-23T05:09:32.399Z,0
2022-10-23T05:10:04.547Z,0
2022-10-23T05:10:35.273Z,.32
2022-10-23T05:10:52.502Z,.64
2022-10-23T05:11:24.339Z,0
2022-10-23T05:11:41.573Z,0
2022-10-23T05:12:13.074Z,0
2022-10-23T05:12:35.218Z,0
2022-10-23T05:13:00.518Z,0
2022-10-23T05:13:32.420Z,0
2022-10-23T05:14:04.326Z,0
2022-10-23T05:14:35.261Z,0
2022-10-23T05:14:52.496Z,0
2022-10-23T05:15:24.514Z,0
2022-10-23T05:16:12.415Z,0
2022-10-23T05:16:35.175Z,0
2022-10-23T05:17:00.432Z,1.12
2022-10-23T05:17:32.377Z,1.77
2022-10-23T05:18:04.336Z,1.77
2022-10-23T05:18:35.480Z,1.44
2022-10-23T05:19:08.455Z,1.44
2022-10-23T05:19:35.261Z,1.77
2022-10-23T05:20:01.809Z,.64
2022-10-23T05:20:28.320Z,.32
2022-10-23T05:21:00.506Z,.32
2022-10-23T05:21:32.482Z,0
2022-10-23T05:22:04.342Z,1.12
2022-10-23T05:22:35.263Z,1.44
2022-10-23T05:22:52.532Z,1.44
2022-10-23T05:23:24.558Z,1.12
2022-10-23T05:23:41.537Z,.32
2022-10-23T05:24:12.406Z,0
2022-10-23T05:24:35.385Z,0
2022-10-23T05:25:00.409Z,0
2022-10-23T05:25:37.475Z,0
2022-10-23T05:26:04.391Z,0
2022-10-23T05:26:40.535Z,0
2022-10-23T05:26:52.843Z,0
2022-10-23T05:27:25.056Z,0
2022-10-23T05:27:42.551Z,0
2022-10-23T05:28:12.428Z,0
2022-10-23T05:28:35.544Z,0
2022-10-23T05:29:00.455Z,0
2022-10-23T05:29:32.471Z,0
2022-10-23T05:30:04.458Z,0
2022-10-23T05:30:35.170Z,0
2022-10-23T05:30:52.447Z,0
2022-10-23T05:31:24.427Z,0
2022-10-23T05:31:41.539Z,0
2022-10-23T05:32:12.429Z,0
2022-10-23T05:32:35.210Z,0
2022-10-23T05:33:00.320Z,0
2022-10-23T05:33:32.391Z,0
2022-10-23T05:34:04.408Z,0
2022-10-23T05:34:35.573Z,0
2022-10-23T05:35:07.813Z,.32
2022-10-23T05:35:24.313Z,0
2022-10-23T05:35:46.585Z,.32
2022-10-23T05:36:12.384Z,1.77
2022-10-23T05:36:35.330Z,1.77
2022-10-23T05:37:00.409Z,1.44
2022-10-23T05:37:33.080Z,1.12
2022-10-23T05:38:04.484Z,0
2022-10-23T05:38:35.110Z,0
2022-10-23T05:38:52.412Z,0
2022-10-23T05:39:24.344Z,0
2022-10-23T05:39:43.401Z,1.12
2022-10-23T05:40:12.383Z,2.09
2022-10-23T05:40:35.296Z,2.09
2022-10-23T05:41:16.573Z,2.09
2022-10-23T05:41:35.282Z,2.89
2022-10-23T05:42:04.470Z,2.09
2022-10-23T05:42:38.257Z,1.44
2022-10-23T05:42:52.305Z,1.77
2022-10-23T05:43:24.418Z,1.77
2022-10-23T05:43:41.574Z,1.77
2022-10-23T05:44:12.429Z,2.09
2022-10-23T05:44:35.223Z,1.77
2022-10-23T05:45:00.510Z,3.21
2022-10-23T05:45:32.453Z,2.89
2022-10-23T05:46:04.478Z,.32
2022-10-23T05:46:35.304Z,.32
2022-10-23T05:46:52.831Z,1.44
2022-10-23T05:47:24.450Z,2.57
2022-10-23T05:47:42.129Z,3.21
2022-10-23T05:48:22.863Z,1.44
2022-10-23T05:48:44.361Z,0
2022-10-23T05:49:16.839Z,0
2022-10-23T05:49:35.205Z,0
2022-10-23T05:50:04.375Z,.32
2022-10-23T05:50:35.249Z,1.12
2022-10-23T05:50:52.436Z,.32
2022-10-23T05:51:24.436Z,0
2022-10-23T05:51:41.587Z,0
2022-10-23T05:52:12.453Z,1.12
2022-10-23T05:52:35.332Z,1.77
2022-10-23T05:53:00.508Z,.32
2022-10-23T05:53:32.422Z,0
2022-10-23T05:54:04.507Z,0
2022-10-23T05:54:41.251Z,0
2022-10-23T05:54:52.638Z,0
2022-10-23T05:55:24.360Z,0
2022-10-23T05:55:41.732Z,0
2022-10-23T05:56:12.491Z,.32
2022-10-23T05:56:35.290Z,2.09
2022-10-23T05:57:00.553Z,1.44
2022-10-23T05:57:32.495Z,1.44
2022-10-23T05:58:04.531Z,0
2022-10-23T05:58:35.482Z,0
2022-10-23T05:59:08.492Z,.32
2022-10-23T05:59:35.688Z,1.77
2022-10-23T05:59:56.517Z,1.77
2022-10-23T06:00:28.451Z,2.09
2022-10-23T06:01:00.483Z,2.09
2022-10-23T06:01:32.550Z,1.77
2022-10-23T06:02:10.062Z,1.77
2022-10-23T06:02:35.626Z,2.09
2022-10-23T06:02:52.565Z,.64
2022-10-23T06:03:24.435Z,1.12
2022-10-23T06:03:46.899Z,.32
2022-10-23T06:04:12.451Z,.32
2022-10-23T06:04:35.366Z,1.77
2022-10-23T06:05:00.544Z,2.89
2022-10-23T06:05:32.613Z,2.09
2022-10-23T06:06:04.615Z,2.89
2022-10-23T06:06:35.292Z,3.54
2022-10-23T06:06:52.519Z,2.09
2022-10-23T06:07:25.051Z,1.77
2022-10-23T06:07:42.542Z,2.09
2022-10-23T06:08:12.531Z,2.09
2022-10-23T06:08:35.378Z,2.57
2022-10-23T06:09:00.520Z,3.21
2022-10-23T06:09:32.538Z,2.09
2022-10-23T06:10:04.615Z,2.09
2022-10-23T06:10:35.337Z,2.89
2022-10-23T06:10:52.564Z,1.77
2022-10-23T06:11:24.651Z,.32
2022-10-23T06:11:41.629Z,.32
2022-10-23T06:12:12.477Z,1.77
2022-10-23T06:12:35.709Z,1.77
2022-10-23T06:13:00.598Z,1.77
2022-10-23T06:13:32.567Z,1.44
2022-10-23T06:14:04.593Z,.64
2022-10-23T06:14:35.372Z,.32